Time;durP1;ratioP1;P1;durP2;ratioP2;P2;SDS_P1;SDS_P2;PMS_P1;PMS_P2;Temp;Humidity;BMP_temperature;BMP_pressure;BME280_temperature;BME280_humidity;BME280_pressure;Samples;Min_cycle;Max_cycle;Signal;HPM_P1;HPM_P2
2022/11/17 00:00:30;;;;;;;35.45;23.65;;;12.30;99.90;;;;;;5036050;28;20037;-74
2022/11/17 00:02:56;;;;;;;30.35;18.65;;;12.20;99.90;;;;;;5031369;28;20025;-72
2022/11/17 00:05:22;;;;;;;27.92;19.38;;;12.10;99.90;;;;;;5032092;28;20036;-73
2022/11/17 00:07:48;;;;;;;24.58;15.27;;;12.20;99.90;;;;;;5037944;28;20029;-73
2022/11/17 00:10:16;;;;;;;21.52;13.68;;;12.10;99.90;;;;;;5039716;28;20021;-73
2022/11/17 00:15:27;;;;;;;27.02;16.42;;;12.10;99.90;;;;;;5031851;28;20037;-75
2022/11/17 00:23:24;;;;;;;19.70;10.73;;;12.00;99.90;;;;;;5048833;28;20052;-74
2022/11/17 00:25:50;;;;;;;13.13;7.78;;;11.90;99.90;;;;;;5038917;28;20033;-75
2022/11/17 00:28:16;;;;;;;14.68;9.75;;;11.90;99.90;;;;;;5046891;28;20029;-77
2022/11/17 00:36:13;;;;;;;21.90;12.60;;;11.90;99.90;;;;;;5031545;28;20097;-74
2022/11/17 00:38:39;;;;;;;17.73;10.50;;;11.90;99.90;;;;;;5048898;28;20013;-74
2022/11/17 00:41:05;;;;;;;16.13;10.32;;;11.90;99.90;;;;;;5038397;28;20432;-77
2022/11/17 00:43:30;;;;;;;12.82;8.68;;;11.80;99.90;;;;;;5031031;28;20100;-76
2022/11/17 00:45:56;;;;;;;14.45;8.88;;;11.80;99.90;;;;;;5048665;28;20035;-74
2022/11/17 00:48:22;;;;;;;15.40;10.23;;;11.80;99.90;;;;;;5034289;28;20013;-74
2022/11/17 00:50:48;;;;;;;14.18;8.70;;;11.80;99.90;;;;;;5031067;28;20018;-73
2022/11/17 00:53:13;;;;;;;12.55;7.65;;;11.70;99.90;;;;;;5031074;28;20057;-74
2022/11/17 00:55:41;;;;;;;13.25;9.02;;;11.70;99.90;;;;;;5031241;28;20033;-73
2022/11/17 00:58:07;;;;;;;17.23;8.48;;;11.70;99.90;;;;;;5049585;28;20025;-74
2022/11/17 01:00:32;;;;;;;13.98;8.32;;;11.70;99.90;;;;;;5032052;28;20482;-74
2022/11/17 01:02:58;;;;;;;18.45;10.38;;;11.70;99.90;;;;;;5030696;28;20088;-74
2022/11/17 01:05:24;;;;;;;13.95;7.75;;;11.70;99.90;;;;;;5036686;28;20029;-76
2022/11/17 01:07:52;;;;;;;14.60;7.65;;;11.60;99.90;;;;;;5040400;28;20025;-74
2022/11/17 01:10:17;;;;;;;10.07;6.53;;;11.60;99.90;;;;;;5044964;28;20037;-74
2022/11/17 01:12:43;;;;;;;10.00;6.80;;;11.60;99.90;;;;;;5030820;28;20025;-74
2022/11/17 01:15:09;;;;;;;11.05;6.60;;;11.50;99.90;;;;;;5030773;28;20129;-77
2022/11/17 01:17:35;;;;;;;8.80;5.65;;;11.50;99.90;;;;;;5053369;28;20083;-73
2022/11/17 01:20:01;;;;;;;9.10;5.75;;;11.50;99.90;;;;;;5030575;28;20480;-73
2022/11/17 01:22:27;;;;;;;6.88;4.68;;;11.50;99.90;;;;;;5048218;28;20028;-75
2022/11/17 01:24:52;;;;;;;7.50;4.45;;;11.50;99.90;;;;;;5033776;28;20021;-74
2022/11/17 01:27:18;;;;;;;5.32;4.32;;;11.50;99.90;;;;;;5031000;28;20029;-74
2022/11/17 01:29:44;;;;;;;10.10;5.28;;;11.50;99.90;;;;;;5030666;28;20056;-74
2022/11/17 01:32:10;;;;;;;8.75;5.13;;;11.50;99.90;;;;;;5030989;28;20497;-74
2022/11/17 01:34:35;;;;;;;8.65;4.63;;;11.50;99.90;;;;;;5030358;28;20040;-77
2022/11/17 01:37:20;;;;;;;8.30;5.32;;;11.40;99.90;;;;;;5035707;28;20471;-73
2022/11/17 01:39:47;;;;;;;7.50;4.88;;;11.40;99.90;;;;;;5037443;28;20045;-74
2022/11/17 01:42:16;;;;;;;8.88;4.93;;;11.40;99.90;;;;;;5030781;28;20108;-74
2022/11/17 01:45:00;;;;;;;5.20;3.88;;;11.40;99.90;;;;;;5030471;28;20041;-74
2022/11/17 01:47:41;;;;;;;5.25;3.67;;;11.40;99.90;;;;;;5034961;28;20033;-74
2022/11/17 01:50:36;;;;;;;5.53;3.33;;;11.40;99.90;;;;;;5030788;28;20080;-73
2022/11/17 01:53:07;;;;;;;5.68;3.30;;;11.30;99.90;;;;;;5045384;28;20026;-75
2022/11/17 01:55:58;;;;;;;4.20;3.40;;;11.30;99.90;;;;;;5030920;28;20037;-73
2022/11/17 01:58:33;;;;;;;3.65;2.63;;;11.30;99.90;;;;;;5037314;28;20782;-73
2022/11/17 02:00:59;;;;;;;3.65;2.75;;;11.20;99.90;;;;;;5030690;28;20091;-74
2022/11/17 02:03:26;;;;;;;3.75;2.65;;;11.20;99.90;;;;;;5030957;28;20025;-74
2022/11/17 02:05:59;;;;;;;3.53;2.53;;;11.10;99.90;;;;;;5031007;28;20029;-78
2022/11/17 02:08:29;;;;;;;3.83;2.50;;;11.00;99.90;;;;;;5044589;28;20039;-74
2022/11/17 02:10:55;;;;;;;3.88;2.60;;;11.00;99.90;;;;;;5030831;28;20029;-74
2022/11/17 02:13:21;;;;;;;4.10;2.70;;;11.00;99.90;;;;;;5030717;28;20380;-74
2022/11/17 02:15:47;;;;;;;4.13;3.10;;;11.00;99.90;;;;;;5030704;28;20009;-75
2022/11/17 02:18:15;;;;;;;6.05;3.08;;;11.00;99.90;;;;;;5030680;28;20128;-74
2022/11/17 02:21:17;;;;;;;3.75;2.85;;;11.00;99.90;;;;;;5044729;28;20028;-73
2022/11/17 02:24:01;;;;;;;5.25;3.65;;;11.00;99.90;;;;;;5030331;28;20116;-74
2022/11/17 02:27:04;;;;;;;6.95;4.03;;;10.90;99.90;;;;;;5031990;28;20072;-75
2022/11/17 02:29:49;;;;;;;7.20;4.45;;;10.90;99.90;;;;;;5034142;28;20159;-73
2022/11/17 02:32:25;;;;;;;8.00;4.45;;;10.80;99.90;;;;;;5034300;28;20041;-73
2022/11/17 02:35:08;;;;;;;8.07;5.47;;;10.80;99.90;;;;;;5040029;28;20044;-74
2022/11/17 02:37:42;;;;;;;9.73;5.75;;;10.80;99.90;;;;;;5035502;28;20022;-73
2022/11/17 02:40:15;;;;;;;10.27;5.75;;;10.80;99.90;;;;;;5032421;28;20510;-74
2022/11/17 02:45:43;;;;;;;10.95;6.93;;;10.80;99.90;;;;;;5033158;28;20000;-74
2022/11/17 02:48:18;;;;;;;13.32;6.95;;;10.80;99.90;;;;;;5033960;28;20464;-74
2022/11/17 02:50:46;;;;;;;12.88;7.47;;;10.70;99.90;;;;;;5032627;28;20423;-74
2022/11/17 02:53:13;;;;;;;13.88;8.13;;;10.70;99.90;;;;;;5032390;28;20022;-74
2022/11/17 02:55:39;;;;;;;13.68;8.20;;;10.70;99.90;;;;;;5032190;28;20045;-73
2022/11/17 02:58:11;;;;;;;13.90;8.15;;;10.70;99.90;;;;;;5026612;28;20031;-74
2022/11/17 03:00:51;;;;;;;12.35;7.70;;;10.70;99.90;;;;;;5032167;28;20133;-74
2022/11/17 03:03:32;;;;;;;11.82;7.60;;;10.70;99.90;;;;;;5032353;28;20073;-73
2022/11/17 03:06:27;;;;;;;13.57;8.18;;;10.70;99.90;;;;;;5032017;28;20038;-73
2022/11/17 03:09:09;;;;;;;13.07;7.60;;;10.70;99.90;;;;;;5036144;28;20029;-75
2022/11/17 03:12:05;;;;;;;11.40;7.30;;;10.70;99.90;;;;;;5027365;28;20041;-78
2022/11/17 03:14:50;;;;;;;12.50;7.18;;;10.60;99.90;;;;;;5031656;28;20037;-74
2022/11/17 03:17:31;;;;;;;13.25;6.53;;;10.60;99.90;;;;;;5031772;28;20585;-73
2022/11/17 03:20:11;;;;;;;14.35;7.63;;;10.60;99.90;;;;;;5031886;28;20100;-74
2022/11/17 03:22:47;;;;;;;11.02;6.40;;;10.50;99.90;;;;;;5032054;28;20112;-73
2022/11/17 03:25:18;;;;;;;12.18;6.90;;;10.50;99.90;;;;;;5031732;28;20076;-73
2022/11/17 03:27:47;;;;;;;13.75;6.93;;;10.50;99.90;;;;;;5031793;28;20775;-74
2022/11/17 03:30:14;;;;;;;11.88;7.15;;;10.50;99.90;;;;;;5033313;28;20072;-74
2022/11/17 03:32:42;;;;;;;12.80;6.90;;;10.50;99.90;;;;;;5033555;28;20356;-74
2022/11/17 03:35:18;;;;;;;11.35;6.38;;;10.50;99.90;;;;;;5031743;28;19944;-73
2022/11/17 03:37:49;;;;;;;16.63;7.00;;;10.50;99.90;;;;;;5033639;28;20025;-76
2022/11/17 03:40:20;;;;;;;10.15;6.03;;;10.50;99.90;;;;;;5031329;28;20527;-75
2022/11/17 03:42:51;;;;;;;11.75;6.50;;;10.50;99.90;;;;;;5031646;28;20534;-76
2022/11/17 03:45:30;;;;;;;12.07;6.78;;;10.50;99.90;;;;;;5039401;28;20035;-72
2022/11/17 03:48:06;;;;;;;11.57;7.03;;;10.40;99.90;;;;;;5031566;28;20113;-75
2022/11/17 03:50:32;;;;;;;13.15;7.88;;;10.40;99.90;;;;;;5031309;28;20854;-75
2022/11/17 03:53:00;;;;;;;13.80;8.18;;;10.40;99.90;;;;;;5031067;28;20022;-75
2022/11/17 03:55:47;;;;;;;14.93;8.02;;;10.40;99.90;;;;;;5030977;28;20095;-74
2022/11/17 03:58:17;;;;;;;17.13;8.90;;;10.30;99.90;;;;;;5034801;28;20025;-74
2022/11/17 04:00:45;;;;;;;19.88;11.65;;;10.20;99.90;;;;;;5030807;28;20028;-75
2022/11/17 04:03:11;;;;;;;21.30;12.77;;;10.00;99.90;;;;;;5031347;28;20064;-75
2022/11/17 04:05:37;;;;;;;22.83;12.45;;;10.00;99.90;;;;;;5031032;28;20452;-75
2022/11/17 04:08:03;;;;;;;22.77;13.23;;;9.90;99.90;;;;;;5034935;28;20095;-74
2022/11/17 04:10:28;;;;;;;20.92;12.35;;;9.80;99.90;;;;;;5035053;28;20091;-74
2022/11/17 04:15:57;;;;;;;23.15;12.75;;;9.80;99.90;;;;;;5030500;28;20478;-74
2022/11/17 04:18:24;;;;;;;22.83;13.40;;;9.70;99.90;;;;;;5029815;28;20033;-75
2022/11/17 04:20:52;;;;;;;21.75;12.75;;;9.70;99.90;;;;;;5026931;28;20595;-73
2022/11/17 04:23:18;;;;;;;25.05;14.15;;;9.60;99.90;;;;;;5028660;28;20065;-78
2022/11/17 04:28:35;;;;;;;24.75;14.90;;;9.40;99.90;;;;;;5030246;28;20051;-74
2022/11/17 04:31:09;;;;;;;22.92;14.60;;;9.40;99.90;;;;;;5049961;28;20043;-74
2022/11/17 04:33:36;;;;;;;26.77;15.25;;;9.30;99.90;;;;;;5050003;28;20041;-74
2022/11/17 04:36:03;;;;;;;25.50;14.50;;;9.30;99.90;;;;;;5050132;28;20467;-73
2022/11/17 04:38:29;;;;;;;26.98;15.23;;;9.30;99.90;;;;;;5045699;28;20022;-74
2022/11/17 04:43:47;;;;;;;26.60;14.77;;;9.30;99.90;;;;;;5028837;28;20040;-74
2022/11/17 04:46:15;;;;;;;30.67;16.25;;;9.30;99.90;;;;;;5035588;28;20049;-74
2022/11/17 04:48:41;;;;;;;26.40;16.10;;;9.30;99.90;;;;;;5030894;28;20043;-73
2022/11/17 04:51:07;;;;;;;26.95;14.45;;;9.30;99.90;;;;;;5031231;28;20029;-74
2022/11/17 04:53:33;;;;;;;27.80;15.95;;;9.20;99.90;;;;;;5036923;28;20025;-74
2022/11/17 04:56:00;;;;;;;24.58;14.90;;;9.20;99.90;;;;;;5031192;28;20324;-74
2022/11/17 04:58:26;;;;;;;25.30;15.82;;;9.20;99.90;;;;;;5033939;28;20025;-74
2022/11/17 05:00:52;;;;;;;28.98;16.00;;;9.10;99.90;;;;;;5044568;28;20032;-74
2022/11/17 05:03:18;;;;;;;26.65;16.35;;;9.10;99.90;;;;;;5031120;28;20029;-76
2022/11/17 05:05:47;;;;;;;26.98;14.50;;;9.00;99.90;;;;;;5031339;28;20427;-76
2022/11/17 05:08:14;;;;;;;31.23;16.92;;;9.00;99.90;;;;;;5031058;28;20030;-74
2022/11/17 05:13:25;;;;;;;29.50;17.10;;;8.90;99.90;;;;;;5031280;28;20558;-75
2022/11/17 05:18:42;;;;;;;30.02;18.63;;;8.80;99.90;;;;;;5035883;28;20033;-77
2022/11/17 05:21:09;;;;;;;30.40;18.48;;;8.80;99.90;;;;;;5031158;28;20101;-73
2022/11/17 05:26:33;;;;;;;31.77;17.65;;;8.80;99.90;;;;;;4999086;28;20069;-74
2022/11/17 05:29:00;;;;;;;33.08;17.05;;;8.80;99.90;;;;;;4999071;28;20033;-75
2022/11/17 05:31:27;;;;;;;28.20;16.45;;;8.80;99.90;;;;;;5005086;28;20168;-75
2022/11/17 05:33:54;;;;;;;29.42;17.73;;;8.70;99.90;;;;;;4993961;28;20068;-75
2022/11/17 05:36:21;;;;;;;30.42;18.33;;;8.70;99.90;;;;;;5004402;28;20057;-74
2022/11/17 05:38:48;;;;;;;29.48;18.50;;;8.60;99.90;;;;;;5004172;28;20033;-75
2022/11/17 05:41:15;;;;;;;33.25;19.10;;;8.50;99.90;;;;;;4998622;28;20507;-75
2022/11/17 05:43:41;;;;;;;38.45;25.35;;;8.50;99.90;;;;;;4992905;28;20070;-73
2022/11/17 05:46:07;;;;;;;39.55;26.95;;;8.40;99.90;;;;;;5006084;23;20080;-76
2022/11/17 05:48:33;;;;;;;38.95;26.73;;;8.40;99.90;;;;;;5028451;28;20472;-74
2022/11/17 05:51:00;;;;;;;36.88;24.15;;;8.30;99.90;;;;;;5028742;28;20022;-74
2022/11/17 05:53:27;;;;;;;32.42;19.65;;;8.40;99.90;;;;;;5016987;28;20484;-73
2022/11/17 05:56:11;;;;;;;33.47;19.45;;;8.40;99.90;;;;;;5015899;28;20371;-72
2022/11/17 05:58:39;;;;;;;30.88;17.50;;;8.50;99.90;;;;;;5010715;28;20080;-73
2022/11/17 06:01:05;;;;;;;31.58;18.88;;;8.50;99.90;;;;;;5018285;28;20026;-75
2022/11/17 06:03:38;;;;;;;32.72;19.20;;;8.50;99.90;;;;;;5027882;28;20033;-75
2022/11/17 06:06:04;;;;;;;28.70;17.52;;;8.60;99.90;;;;;;5020347;28;20467;-74
2022/11/17 06:08:30;;;;;;;28.23;17.38;;;8.70;99.90;;;;;;5022439;28;20117;-74
2022/11/17 06:10:56;;;;;;;37.53;18.50;;;8.70;99.90;;;;;;5022768;28;20030;-75
2022/11/17 06:13:25;;;;;;;29.05;18.17;;;8.80;99.90;;;;;;5017176;28;20042;-74
2022/11/17 06:15:53;;;;;;;29.60;19.25;;;8.80;99.90;;;;;;5027783;28;20506;-74
2022/11/17 06:18:24;;;;;;;34.28;21.23;;;8.80;99.90;;;;;;5017983;28;20029;-76
2022/11/17 06:20:52;;;;;;;35.53;21.98;;;8.80;99.90;;;;;;5031501;28;20108;-74
2022/11/17 06:23:21;;;;;;;45.63;27.92;;;8.80;99.90;;;;;;5020489;28;20029;-75
2022/11/17 06:25:47;;;;;;;39.00;24.13;;;8.80;99.90;;;;;;5020212;28;20484;-74
2022/11/17 06:28:18;;;;;;;48.78;30.75;;;8.90;99.90;;;;;;5026011;28;20571;-74
2022/11/17 06:30:44;;;;;;;56.13;32.92;;;8.90;99.90;;;;;;5022004;28;20034;-74
2022/11/17 06:33:13;;;;;;;56.47;36.13;;;9.00;99.90;;;;;;5005463;28;20471;-75
2022/11/17 06:35:41;;;;;;;49.05;33.85;;;9.10;99.90;;;;;;5007333;28;20042;-75
2022/11/17 06:38:06;;;;;;;40.72;26.80;;;9.20;99.90;;;;;;5009368;28;20134;-74
2022/11/17 06:40:32;;;;;;;36.58;23.63;;;9.30;99.90;;;;;;4999087;28;20287;-78
2022/11/17 06:43:08;;;;;;;32.38;21.38;;;9.30;99.90;;;;;;5012862;28;20033;-75
2022/11/17 06:45:40;;;;;;;40.05;23.85;;;9.40;99.90;;;;;;5001609;28;20034;-73
2022/11/17 06:48:07;;;;;;;38.03;24.35;;;9.40;99.90;;;;;;5012831;28;20030;-74
2022/11/17 06:50:33;;;;;;;34.22;22.77;;;9.40;99.90;;;;;;5013189;28;20153;-74
2022/11/17 06:53:02;;;;;;;39.28;20.50;;;9.40;99.90;;;;;;5013638;28;20036;-74
2022/11/17 06:55:28;;;;;;;34.20;21.15;;;9.50;99.90;;;;;;5013650;28;20530;-78
2022/11/17 06:58:05;;;;;;;31.65;19.15;;;9.50;99.90;;;;;;4997577;28;20041;-75
2022/11/17 07:00:33;;;;;;;27.70;16.65;;;9.50;99.90;;;;;;5009974;28;20449;-76
2022/11/17 07:03:04;;;;;;;31.48;17.73;;;9.50;99.90;;;;;;5004008;28;20539;-73
2022/11/17 07:05:31;;;;;;;26.75;16.42;;;9.50;99.90;;;;;;5007729;28;20042;-74
2022/11/17 07:08:02;;;;;;;32.22;17.70;;;9.50;99.90;;;;;;5011266;28;20017;-75
2022/11/17 07:10:29;;;;;;;29.20;17.50;;;9.50;99.90;;;;;;5009939;28;20372;-74
2022/11/17 07:12:55;;;;;;;33.15;18.08;;;9.50;99.90;;;;;;5012994;28;20025;-74
2022/11/17 07:15:21;;;;;;;28.98;17.70;;;9.60;99.90;;;;;;5006920;28;20399;-74
2022/11/17 07:17:47;;;;;;;30.60;19.75;;;9.60;99.90;;;;;;5011632;28;20018;-74
2022/11/17 07:20:13;;;;;;;34.33;21.85;;;9.60;99.90;;;;;;5011643;28;20042;-75
2022/11/17 07:22:40;;;;;;;34.78;20.95;;;9.60;99.90;;;;;;5013678;28;20053;-74
2022/11/17 07:25:07;;;;;;;38.45;20.48;;;9.60;99.90;;;;;;5011902;28;20034;-75
2022/11/17 07:27:33;;;;;;;32.25;20.10;;;9.70;99.90;;;;;;5013425;28;20050;-75
2022/11/17 07:29:59;;;;;;;30.77;18.60;;;9.60;99.90;;;;;;5013259;28;20026;-75
2022/11/17 07:32:25;;;;;;;30.08;17.35;;;9.70;99.90;;;;;;5003197;28;20107;-74
2022/11/17 07:34:51;;;;;;;31.05;18.13;;;9.60;99.90;;;;;;5002184;28;20397;-73
2022/11/17 07:37:17;;;;;;;28.08;17.40;;;9.60;99.90;;;;;;5013391;28;20104;-75
2022/11/17 07:39:43;;;;;;;32.90;18.40;;;9.70;99.90;;;;;;5013279;28;20537;-76
2022/11/17 07:42:09;;;;;;;35.83;18.58;;;9.70;99.90;;;;;;4999178;28;20484;-75
2022/11/17 07:44:35;;;;;;;31.27;17.80;;;9.70;99.90;;;;;;5013040;28;20026;-76
2022/11/17 07:47:01;;;;;;;33.65;18.98;;;9.70;99.90;;;;;;5012681;28;20061;-76
2022/11/17 07:49:27;;;;;;;31.13;18.33;;;9.60;99.90;;;;;;5011836;28;20431;-76
2022/11/17 07:51:53;;;;;;;29.25;15.15;;;9.70;99.90;;;;;;5012765;28;20053;-75
2022/11/17 07:54:19;;;;;;;26.73;16.08;;;9.80;99.90;;;;;;5012853;28;20049;-74
2022/11/17 07:56:45;;;;;;;28.10;16.65;;;9.80;99.90;;;;;;5012921;28;20408;-75
2022/11/17 07:59:11;;;;;;;24.52;14.68;;;9.80;99.90;;;;;;5012391;28;20038;-75
2022/11/17 08:01:37;;;;;;;25.70;15.95;;;9.80;99.90;;;;;;5012553;28;20137;-76
2022/11/17 08:04:03;;;;;;;26.10;15.15;;;9.80;99.90;;;;;;5011252;28;20029;-75
2022/11/17 08:06:30;;;;;;;26.23;16.08;;;9.90;99.90;;;;;;5010613;28;20030;-77
2022/11/17 08:08:55;;;;;;;27.70;16.35;;;9.90;99.90;;;;;;4997967;28;20549;-76
2022/11/17 08:11:21;;;;;;;28.15;14.85;;;10.00;99.90;;;;;;5011535;28;20104;-75
2022/11/17 08:13:49;;;;;;;27.83;14.93;;;10.00;99.90;;;;;;5010361;28;20065;-75
2022/11/17 08:16:14;;;;;;;26.20;14.02;;;10.00;99.90;;;;;;5009440;28;20026;-75
2022/11/17 08:18:40;;;;;;;26.30;14.98;;;9.90;99.90;;;;;;5011758;28;20044;-75
2022/11/17 08:21:12;;;;;;;27.05;13.70;;;9.90;99.90;;;;;;5011221;28;20432;-74
2022/11/17 08:23:39;;;;;;;25.90;16.13;;;9.90;99.90;;;;;;5007541;28;20540;-74
2022/11/17 08:26:17;;;;;;;29.80;16.75;;;9.90;99.90;;;;;;5009820;28;20018;-74
2022/11/17 08:28:42;;;;;;;29.13;15.68;;;10.00;99.90;;;;;;4997482;28;20077;-80
2022/11/17 08:31:08;;;;;;;28.65;16.23;;;10.10;99.90;;;;;;5004349;28;20053;-76
2022/11/17 08:33:34;;;;;;;24.60;15.48;;;10.20;99.90;;;;;;5011445;28;20029;-76
2022/11/17 08:36:02;;;;;;;26.75;15.45;;;10.10;99.90;;;;;;5011849;28;20684;-74
2022/11/17 08:38:29;;;;;;;31.50;16.90;;;10.10;99.90;;;;;;5011526;28;20387;-74
2022/11/17 08:41:00;;;;;;;32.20;17.40;;;10.20;99.90;;;;;;5007077;28;20024;-75
2022/11/17 08:43:26;;;;;;;35.00;20.27;;;10.10;99.90;;;;;;5001573;28;20041;-75
2022/11/17 08:45:52;;;;;;;28.75;17.88;;;10.10;99.90;;;;;;5001014;28;20038;-74
2022/11/17 08:48:18;;;;;;;26.63;15.10;;;10.10;99.90;;;;;;5002310;28;20054;-73
2022/11/17 08:50:44;;;;;;;28.63;16.08;;;10.00;99.90;;;;;;5003729;28;20064;-74
2022/11/17 08:53:13;;;;;;;24.35;15.60;;;10.10;99.90;;;;;;5010058;28;20466;-74
2022/11/17 08:55:39;;;;;;;28.50;15.93;;;10.00;99.90;;;;;;5005957;28;20392;-74
2022/11/17 08:58:05;;;;;;;31.17;17.13;;;10.00;99.90;;;;;;5000718;28;20032;-74
2022/11/17 09:00:30;;;;;;;27.73;17.30;;;10.00;99.90;;;;;;5005625;28;20076;-74
2022/11/17 09:02:56;;;;;;;27.63;16.65;;;10.10;99.90;;;;;;5011419;28;20036;-74
2022/11/17 09:05:23;;;;;;;27.27;15.57;;;10.10;99.90;;;;;;5010747;28;20041;-77
2022/11/17 09:07:50;;;;;;;29.55;17.13;;;10.20;99.90;;;;;;5004496;28;20037;-79
2022/11/17 09:10:16;;;;;;;28.33;16.42;;;10.30;99.90;;;;;;5006860;28;20038;-76
2022/11/17 09:12:42;;;;;;;29.58;17.27;;;10.40;99.90;;;;;;5011450;28;20021;-74
2022/11/17 09:15:08;;;;;;;29.98;18.23;;;10.40;99.90;;;;;;5010542;28;20045;-74
2022/11/17 09:17:34;;;;;;;31.60;17.27;;;10.50;99.90;;;;;;5006737;28;20034;-74
2022/11/17 09:20:00;;;;;;;27.50;17.17;;;10.60;99.90;;;;;;5011507;28;20539;-72
2022/11/17 09:22:26;;;;;;;30.67;18.23;;;10.70;99.90;;;;;;4985603;28;20027;-79
2022/11/17 09:24:52;;;;;;;29.02;18.58;;;10.90;99.90;;;;;;5001297;28;20456;-75
2022/11/17 09:27:18;;;;;;;30.85;16.50;;;10.80;99.90;;;;;;5010848;28;20362;-78
2022/11/17 09:29:44;;;;;;;30.73;17.65;;;10.90;99.90;;;;;;5010755;28;20109;-74
2022/11/17 09:32:10;;;;;;;28.35;16.52;;;11.00;99.90;;;;;;5010782;28;20026;-74
2022/11/17 09:34:35;;;;;;;27.13;15.90;;;10.90;99.90;;;;;;5011070;28;20145;-74
2022/11/17 09:37:01;;;;;;;26.17;15.20;;;10.90;99.90;;;;;;5015065;28;20115;-74
2022/11/17 09:39:27;;;;;;;28.83;16.33;;;10.90;99.90;;;;;;5017985;28;20030;-79
2022/11/17 09:41:55;;;;;;;24.50;14.98;;;11.10;99.90;;;;;;5015977;28;20026;-74
2022/11/17 09:44:30;;;;;;;22.80;13.95;;;11.10;99.90;;;;;;5008804;28;20065;-74
2022/11/17 09:47:01;;;;;;;24.95;13.90;;;11.10;99.90;;;;;;5006539;28;20140;-74
2022/11/17 09:49:48;;;;;;;27.63;14.50;;;11.20;99.90;;;;;;5012705;28;20073;-74
2022/11/17 09:52:35;;;;;;;25.92;16.20;;;11.10;99.90;;;;;;5017167;28;20034;-74
2022/11/17 09:55:07;;;;;;;27.63;15.75;;;11.00;99.90;;;;;;5017191;28;20053;-75
2022/11/17 09:57:42;;;;;;;21.58;13.80;;;11.00;99.90;;;;;;5007467;28;20468;-73
2022/11/17 10:00:26;;;;;;;27.75;16.02;;;11.00;99.90;;;;;;5017287;28;20037;-74
2022/11/17 10:02:54;;;;;;;26.45;14.95;;;11.10;99.90;;;;;;5017477;28;20056;-74
2022/11/17 10:05:30;;;;;;;28.17;16.33;;;11.10;99.90;;;;;;5017618;28;20038;-74
2022/11/17 10:08:02;;;;;;;24.48;15.00;;;11.20;99.90;;;;;;5017986;28;20065;-75
2022/11/17 10:10:37;;;;;;;28.33;16.13;;;11.30;99.90;;;;;;5017352;28;20535;-72
2022/11/17 10:13:08;;;;;;;25.35;15.45;;;11.30;99.90;;;;;;5017339;28;20041;-74
2022/11/17 10:15:48;;;;;;;24.15;15.43;;;11.30;99.90;;;;;;5017266;28;20038;-74
2022/11/17 10:18:16;;;;;;;25.92;15.60;;;11.30;99.90;;;;;;5016968;28;20041;-74
2022/11/17 10:20:43;;;;;;;27.05;15.50;;;11.40;99.90;;;;;;5016644;28;20032;-74
2022/11/17 10:23:15;;;;;;;26.23;16.20;;;11.50;99.90;;;;;;5017323;28;20146;-73
2022/11/17 10:25:47;;;;;;;22.67;13.02;;;11.40;99.90;;;;;;5017384;28;20038;-74
2022/11/17 10:28:31;;;;;;;30.45;15.00;;;11.50;99.90;;;;;;5008772;28;20025;-75
2022/11/17 10:30:59;;;;;;;26.38;14.18;;;11.60;99.90;;;;;;5012425;28;20034;-74
2022/11/17 10:33:33;;;;;;;24.50;15.13;;;11.80;99.90;;;;;;5014019;28;20542;-73
2022/11/17 10:36:00;;;;;;;23.75;14.57;;;11.80;99.90;;;;;;5015894;28;20605;-74
2022/11/17 10:38:28;;;;;;;23.83;12.63;;;11.90;99.90;;;;;;5016208;28;20029;-74
2022/11/17 10:40:57;;;;;;;26.23;13.73;;;12.10;99.90;;;;;;5014872;28;20109;-74
2022/11/17 10:43:29;;;;;;;22.88;13.02;;;12.20;99.90;;;;;;5011486;28;20036;-74
2022/11/17 10:46:06;;;;;;;26.00;16.48;;;12.30;99.90;;;;;;5012627;28;20050;-74
2022/11/17 10:48:33;;;;;;;23.50;14.80;;;12.20;99.90;;;;;;5007820;28;20091;-74
2022/11/17 10:51:01;;;;;;;36.22;24.33;;;12.40;99.90;;;;;;5009252;28;20488;-74
2022/11/17 10:53:37;;;;;;;19.27;12.15;;;12.40;99.90;;;;;;5004721;28;20038;-77
2022/11/17 10:56:15;;;;;;;21.23;13.18;;;12.30;99.90;;;;;;4994355;28;20588;-74
2022/11/17 10:59:03;;;;;;;20.10;11.95;;;12.20;99.90;;;;;;5001909;28;20469;-75
2022/11/17 11:01:43;;;;;;;20.75;11.35;;;12.20;99.90;;;;;;5003961;28;20026;-74
2022/11/17 11:04:29;;;;;;;19.13;10.60;;;12.20;99.90;;;;;;5009576;28;20068;-75
2022/11/17 11:07:42;;;;;;;21.63;12.05;;;12.30;99.90;;;;;;5013648;28;20030;-74
2022/11/17 11:10:17;;;;;;;20.23;10.85;;;12.40;99.90;;;;;;4947200;28;20043;-73
2022/11/17 11:13:05;;;;;;;18.38;9.68;;;12.40;99.90;;;;;;4968095;28;20106;-74
2022/11/17 11:15:34;;;;;;;20.67;11.77;;;12.40;99.90;;;;;;4952285;28;20051;-74
2022/11/17 11:18:01;;;;;;;19.83;10.48;;;12.40;99.90;;;;;;4945165;28;20417;-75
2022/11/17 11:20:46;;;;;;;20.42;11.35;;;12.40;99.90;;;;;;4962962;28;20439;-75
2022/11/17 11:23:30;;;;;;;19.60;11.70;;;12.50;99.90;;;;;;4946058;28;20173;-74
2022/11/17 11:26:20;;;;;;;19.38;11.38;;;12.40;99.90;;;;;;4938355;28;20039;-74
2022/11/17 11:28:52;;;;;;;22.70;13.38;;;12.70;99.90;;;;;;4971585;28;20034;-74
2022/11/17 11:31:27;;;;;;;21.38;12.75;;;12.70;99.90;;;;;;4971688;28;20042;-73
2022/11/17 11:34:36;;;;;;;26.10;15.13;;;12.80;99.90;;;;;;4963146;28;20489;-77
2022/11/17 11:37:14;;;;;;;22.17;13.65;;;12.90;99.90;;;;;;4877045;29;20061;-75
2022/11/17 11:40:01;;;;;;;26.77;15.35;;;12.90;99.90;;;;;;4888059;29;20444;-74
2022/11/17 11:42:43;;;;;;;28.17;17.35;;;13.00;99.90;;;;;;4895515;29;20063;-74
2022/11/17 11:45:21;;;;;;;26.92;17.35;;;13.00;99.90;;;;;;4897589;29;20127;-74
2022/11/17 11:48:08;;;;;;;27.55;16.60;;;13.10;99.90;;;;;;4942939;29;20055;-74
2022/11/17 11:51:08;;;;;;;31.55;19.20;;;13.10;99.90;;;;;;4927398;29;20064;-75
2022/11/17 11:53:42;;;;;;;27.48;16.92;;;13.20;99.90;;;;;;4927121;29;20583;-74
2022/11/17 11:56:08;;;;;;;25.42;15.27;;;13.20;99.90;;;;;;4940859;29;20046;-74
2022/11/17 11:58:37;;;;;;;22.25;13.70;;;13.10;99.90;;;;;;4946756;28;20541;-74
2022/11/17 12:01:06;;;;;;;25.20;16.33;;;13.20;99.90;;;;;;4935915;29;20043;-75
2022/11/17 12:03:34;;;;;;;26.55;17.50;;;13.30;99.90;;;;;;4939090;29;20042;-76
2022/11/17 12:09:04;;;;;;;24.52;15.55;;;13.50;99.90;;;;;;5003051;28;20041;-75
2022/11/17 12:14:17;;;;;;;31.63;18.80;;;13.40;99.90;;;;;;5011448;28;20029;-74
2022/11/17 12:16:46;;;;;;;30.27;21.30;;;13.50;99.90;;;;;;5012287;28;20034;-74
2022/11/17 12:19:49;;;;;;;29.52;20.00;;;13.30;99.90;;;;;;5011548;28;20056;-74
2022/11/17 12:22:33;;;;;;;36.67;20.95;;;13.40;99.90;;;;;;5011906;28;20528;-75
2022/11/17 12:25:17;;;;;;;26.00;17.30;;;13.30;99.90;;;;;;5011997;28;20014;-75
2022/11/17 12:27:57;;;;;;;31.75;19.63;;;13.10;99.90;;;;;;5012253;28;20066;-74
2022/11/17 12:30:32;;;;;;;27.15;16.55;;;13.30;99.90;;;;;;4999168;28;20022;-74
2022/11/17 12:33:07;;;;;;;27.33;17.83;;;13.20;99.90;;;;;;5012075;28;20053;-74
2022/11/17 12:35:35;;;;;;;29.10;18.65;;;13.30;99.90;;;;;;5010065;28;20041;-78
2022/11/17 12:38:16;;;;;;;29.33;18.13;;;13.30;99.90;;;;;;5004031;28;20602;-74
2022/11/17 12:40:51;;;;;;;27.55;17.15;;;13.00;99.90;;;;;;5005912;28;20034;-76
2022/11/17 12:43:22;;;;;;;28.92;17.02;;;12.90;99.90;;;;;;5011184;28;20026;-74
2022/11/17 12:45:51;;;;;;;27.95;16.83;;;13.00;99.90;;;;;;5000386;28;20117;-74
2022/11/17 12:48:23;;;;;;;28.38;16.42;;;12.90;99.90;;;;;;5006663;28;20022;-75
2022/11/17 12:51:07;;;;;;;27.10;16.57;;;12.90;99.90;;;;;;5000567;28;20054;-74
2022/11/17 12:54:10;;;;;;;26.52;18.20;;;13.00;99.90;;;;;;5009304;28;20283;-74
2022/11/17 12:56:42;;;;;;;32.10;19.58;;;13.10;99.90;;;;;;5011875;28;20064;-74
2022/11/17 12:59:24;;;;;;;27.40;17.73;;;13.10;99.90;;;;;;5011840;28;20468;-75
2022/11/17 13:02:28;;;;;;;25.27;17.60;;;12.90;99.90;;;;;;5009759;28;20449;-75
2022/11/17 13:05:02;;;;;;;24.42;16.45;;;12.70;99.90;;;;;;5004629;28;20048;-74
2022/11/17 13:07:46;;;;;;;23.23;15.80;;;12.90;99.90;;;;;;4984584;28;20523;-74
2022/11/17 13:10:24;;;;;;;28.65;16.63;;;12.90;99.90;;;;;;5010847;28;20108;-76
2022/11/17 13:13:09;;;;;;;28.42;15.88;;;12.70;99.90;;;;;;5009680;28;20104;-75
2022/11/17 13:15:35;;;;;;;27.90;16.73;;;12.90;99.90;;;;;;5006096;28;20105;-74
2022/11/17 13:18:07;;;;;;;25.73;15.82;;;12.90;99.90;;;;;;5011260;28;20045;-78
2022/11/17 13:20:33;;;;;;;36.63;21.77;;;12.80;99.90;;;;;;5008608;28;20644;-75
2022/11/17 13:23:05;;;;;;;25.33;15.35;;;12.80;99.90;;;;;;5006274;28;20111;-74
2022/11/17 13:25:32;;;;;;;28.48;16.60;;;12.90;99.90;;;;;;5009957;28;20476;-74
2022/11/17 13:27:59;;;;;;;23.27;15.48;;;12.90;99.90;;;;;;5011042;28;20060;-73
2022/11/17 13:30:30;;;;;;;24.85;16.20;;;12.90;99.90;;;;;;5010200;28;20033;-73
2022/11/17 13:33:00;;;;;;;25.73;17.02;;;12.90;99.90;;;;;;5007011;28;20018;-74